sensor_id;sensor_type;location;lat;lon;timestamp;pressure;altitude;pressure_sealevel;temperature;humidity
74895;BME280;63447;49.446;8.666;2023-11-22T00:02:06;100887.06;;;6.60;88.25
74895;BME280;63447;49.446;8.666;2023-11-22T00:04:34;100895.94;;;6.52;87.80
74895;BME280;63447;49.446;8.666;2023-11-22T00:06:59;100889.56;;;6.33;90.63
74895;BME280;63447;49.446;8.666;2023-11-22T00:09:29;100891.84;;;6.26;88.96
74895;BME280;63447;49.446;8.666;2023-11-22T00:11:57;100878.50;;;5.90;89.81
74895;BME280;63447;49.446;8.666;2023-11-22T00:14:25;100905.47;;;6.07;92.08
74895;BME280;63447;49.446;8.666;2023-11-22T00:16:53;100897.44;;;6.16;91.04
74895;BME280;63447;49.446;8.666;2023-11-22T00:19:21;100901.19;;;5.96;89.88
74895;BME280;63447;49.446;8.666;2023-11-22T00:21:50;100897.28;;;6.02;91.55
74895;BME280;63447;49.446;8.666;2023-11-22T00:24:16;100921.56;;;6.13;93.08
74895;BME280;63447;49.446;8.666;2023-11-22T00:26:41;100903.34;;;5.99;91.59
74895;BME280;63447;49.446;8.666;2023-11-22T00:29:09;100901.91;;;6.06;90.30
74895;BME280;63447;49.446;8.666;2023-11-22T00:31:34;100918.31;;;5.72;90.92
74895;BME280;63447;49.446;8.666;2023-11-22T00:33:59;100936.31;;;5.89;92.47
74895;BME280;63447;49.446;8.666;2023-11-22T00:36:27;100942.69;;;5.74;89.89
74895;BME280;63447;49.446;8.666;2023-11-22T00:38:58;100938.75;;;5.51;92.66
74895;BME280;63447;49.446;8.666;2023-11-22T00:41:23;100941.47;;;5.56;89.40
74895;BME280;63447;49.446;8.666;2023-11-22T00:43:50;100951.31;;;5.57;90.48
74895;BME280;63447;49.446;8.666;2023-11-22T00:46:18;100932.53;;;5.40;90.24
74895;BME280;63447;49.446;8.666;2023-11-22T00:48:43;100947.03;;;5.41;91.68
74895;BME280;63447;49.446;8.666;2023-11-22T00:51:13;100959.78;;;5.61;92.95
74895;BME280;63447;49.446;8.666;2023-11-22T00:53:39;100933.84;;;5.48;91.74
74895;BME280;63447;49.446;8.666;2023-11-22T00:56:07;100944.75;;;5.53;92.68
74895;BME280;63447;49.446;8.666;2023-11-22T00:58:35;100963.47;;;5.41;93.53
74895;BME280;63447;49.446;8.666;2023-11-22T01:01:00;100943.00;;;5.28;93.06
74895;BME280;63447;49.446;8.666;2023-11-22T01:03:27;100963.28;;;5.22;94.74
74895;BME280;63447;49.446;8.666;2023-11-22T01:05:53;100964.72;;;5.15;95.04
74895;BME280;63447;49.446;8.666;2023-11-22T01:08:19;100943.94;;;5.08;92.98
74895;BME280;63447;49.446;8.666;2023-11-22T01:10:46;100967.09;;;5.26;93.28
74895;BME280;63447;49.446;8.666;2023-11-22T01:13:14;100951.47;;;5.32;92.88
74895;BME280;63447;49.446;8.666;2023-11-22T01:15:42;100961.09;;;5.24;94.69
74895;BME280;63447;49.446;8.666;2023-11-22T01:18:09;100953.16;;;5.23;94.89
74895;BME280;63447;49.446;8.666;2023-11-22T01:20:35;100959.16;;;5.25;94.67
74895;BME280;63447;49.446;8.666;2023-11-22T01:23:00;100968.19;;;5.25;95.04
74895;BME280;63447;49.446;8.666;2023-11-22T01:25:25;100981.38;;;5.18;94.42
74895;BME280;63447;49.446;8.666;2023-11-22T01:27:56;100975.97;;;4.98;95.24
74895;BME280;63447;49.446;8.666;2023-11-22T01:30:23;100976.78;;;4.98;95.78
74895;BME280;63447;49.446;8.666;2023-11-22T01:32:49;100990.81;;;4.82;94.43
74895;BME280;63447;49.446;8.666;2023-11-22T01:35:17;100969.84;;;4.67;95.87
74895;BME280;63447;49.446;8.666;2023-11-22T01:37:42;100984.78;;;4.85;94.90
74895;BME280;63447;49.446;8.666;2023-11-22T01:40:08;100995.41;;;4.96;95.59
74895;BME280;63447;49.446;8.666;2023-11-22T01:42:36;100988.34;;;4.85;93.34
74895;BME280;63447;49.446;8.666;2023-11-22T01:45:05;100992.47;;;4.83;93.29
74895;BME280;63447;49.446;8.666;2023-11-22T01:47:34;100995.47;;;4.81;93.71
74895;BME280;63447;49.446;8.666;2023-11-22T01:50:04;100982.38;;;4.68;94.71
74895;BME280;63447;49.446;8.666;2023-11-22T01:52:31;101003.13;;;4.74;94.84
74895;BME280;63447;49.446;8.666;2023-11-22T01:54:57;101001.22;;;4.69;95.21
74895;BME280;63447;49.446;8.666;2023-11-22T01:57:24;100987.06;;;4.47;95.69
74895;BME280;63447;49.446;8.666;2023-11-22T01:59:50;101008.66;;;4.49;94.92
74895;BME280;63447;49.446;8.666;2023-11-22T02:02:15;101016.56;;;4.50;95.75
74895;BME280;63447;49.446;8.666;2023-11-22T02:04:40;101022.88;;;4.51;96.37
74895;BME280;63447;49.446;8.666;2023-11-22T02:07:06;101012.22;;;4.49;95.80
74895;BME280;63447;49.446;8.666;2023-11-22T02:09:31;101022.63;;;4.37;95.23
74895;BME280;63447;49.446;8.666;2023-11-22T02:11:59;101020.44;;;4.34;96.68
74895;BME280;63447;49.446;8.666;2023-11-22T02:14:26;101019.06;;;4.06;94.09
74895;BME280;63447;49.446;8.666;2023-11-22T02:16:52;101025.09;;;4.08;95.49
74895;BME280;63447;49.446;8.666;2023-11-22T02:19:17;101009.53;;;4.03;95.31
74895;BME280;63447;49.446;8.666;2023-11-22T02:21:43;101013.06;;;3.89;94.70
74895;BME280;63447;49.446;8.666;2023-11-22T02:24:09;101040.13;;;4.11;93.97
74895;BME280;63447;49.446;8.666;2023-11-22T02:26:36;101017.97;;;3.87;92.29
74895;BME280;63447;49.446;8.666;2023-11-22T02:29:04;101043.09;;;3.99;93.27
74895;BME280;63447;49.446;8.666;2023-11-22T02:31:30;101056.19;;;3.87;92.78
74895;BME280;63447;49.446;8.666;2023-11-22T02:33:58;101051.84;;;3.86;93.14
74895;BME280;63447;49.446;8.666;2023-11-22T02:36:23;101063.78;;;3.64;91.40
74895;BME280;63447;49.446;8.666;2023-11-22T02:38:53;101076.66;;;3.79;93.88
74895;BME280;63447;49.446;8.666;2023-11-22T02:41:19;101079.41;;;3.89;93.96
74895;BME280;63447;49.446;8.666;2023-11-22T02:43:44;101079.69;;;3.98;93.68
74895;BME280;63447;49.446;8.666;2023-11-22T02:46:13;101090.63;;;4.03;94.05
74895;BME280;63447;49.446;8.666;2023-11-22T02:48:41;101075.84;;;3.94;93.81
74895;BME280;63447;49.446;8.666;2023-11-22T02:51:10;101084.31;;;3.92;93.24
74895;BME280;63447;49.446;8.666;2023-11-22T02:53:41;101101.50;;;3.93;92.74
74895;BME280;63447;49.446;8.666;2023-11-22T02:56:11;101086.22;;;3.82;94.17
74895;BME280;63447;49.446;8.666;2023-11-22T02:58:37;101077.16;;;3.61;91.92
74895;BME280;63447;49.446;8.666;2023-11-22T03:01:04;101090.53;;;3.67;93.03
74895;BME280;63447;49.446;8.666;2023-11-22T03:03:32;101088.88;;;3.56;91.83
74895;BME280;63447;49.446;8.666;2023-11-22T03:05:58;101094.31;;;3.56;92.97
74895;BME280;63447;49.446;8.666;2023-11-22T03:08:23;101072.72;;;3.45;93.10
74895;BME280;63447;49.446;8.666;2023-11-22T03:10:51;101083.69;;;3.55;93.64
74895;BME280;63447;49.446;8.666;2023-11-22T03:13:16;101086.97;;;3.57;92.76
74895;BME280;63447;49.446;8.666;2023-11-22T03:15:41;101091.06;;;3.59;92.96
74895;BME280;63447;49.446;8.666;2023-11-22T03:18:07;101074.06;;;3.42;92.52
74895;BME280;63447;49.446;8.666;2023-11-22T03:20:33;101094.31;;;3.51;92.77
74895;BME280;63447;49.446;8.666;2023-11-22T03:22:58;101105.22;;;3.51;92.35
74895;BME280;63447;49.446;8.666;2023-11-22T03:25:26;101100.25;;;3.43;92.43
74895;BME280;63447;49.446;8.666;2023-11-22T03:27:54;101106.50;;;3.38;93.00
74895;BME280;63447;49.446;8.666;2023-11-22T03:30:19;101123.19;;;3.47;92.53
74895;BME280;63447;49.446;8.666;2023-11-22T03:32:48;101128.06;;;3.35;92.70
74895;BME280;63447;49.446;8.666;2023-11-22T03:35:15;101140.06;;;3.34;92.79
74895;BME280;63447;49.446;8.666;2023-11-22T03:37:43;101145.25;;;3.35;93.00
74895;BME280;63447;49.446;8.666;2023-11-22T03:40:13;101139.81;;;3.35;92.55
74895;BME280;63447;49.446;8.666;2023-11-22T03:42:43;101130.25;;;3.33;92.99
74895;BME280;63447;49.446;8.666;2023-11-22T03:45:09;101150.16;;;3.33;92.85
74895;BME280;63447;49.446;8.666;2023-11-22T03:47:34;101147.66;;;3.27;92.51
74895;BME280;63447;49.446;8.666;2023-11-22T03:50:03;101138.91;;;3.25;92.64
74895;BME280;63447;49.446;8.666;2023-11-22T03:52:31;101148.97;;;3.19;92.91
74895;BME280;63447;49.446;8.666;2023-11-22T03:54:56;101176.06;;;3.31;93.38
74895;BME280;63447;49.446;8.666;2023-11-22T03:57:24;101126.78;;;3.00;93.61
74895;BME280;63447;49.446;8.666;2023-11-22T03:59:54;101163.38;;;3.10;93.06
74895;BME280;63447;49.446;8.666;2023-11-22T04:02:22;101169.88;;;3.03;94.08
74895;BME280;63447;49.446;8.666;2023-11-22T04:04:49;101163.63;;;3.08;93.36
74895;BME280;63447;49.446;8.666;2023-11-22T04:07:19;101162.78;;;3.02;93.72
74895;BME280;63447;49.446;8.666;2023-11-22T04:09:45;101176.63;;;2.96;94.05
74895;BME280;63447;49.446;8.666;2023-11-22T04:12:10;101189.69;;;2.94;94.25
74895;BME280;63447;49.446;8.666;2023-11-22T04:14:35;101176.56;;;2.86;93.67
74895;BME280;63447;49.446;8.666;2023-11-22T04:17:00;101180.09;;;2.86;94.63
74895;BME280;63447;49.446;8.666;2023-11-22T04:19:28;101186.56;;;2.75;93.75
74895;BME280;63447;49.446;8.666;2023-11-22T04:21:56;101195.56;;;2.76;95.20
74895;BME280;63447;49.446;8.666;2023-11-22T04:24:23;101196.13;;;2.78;94.76
74895;BME280;63447;49.446;8.666;2023-11-22T04:26:51;101192.22;;;2.68;94.55
74895;BME280;63447;49.446;8.666;2023-11-22T04:29:16;101216.75;;;2.68;94.95
74895;BME280;63447;49.446;8.666;2023-11-22T04:31:42;101230.41;;;2.73;94.61
74895;BME280;63447;49.446;8.666;2023-11-22T04:34:09;101236.00;;;2.62;94.74
74895;BME280;63447;49.446;8.666;2023-11-22T04:36:35;101250.72;;;2.61;95.27
74895;BME280;63447;49.446;8.666;2023-11-22T04:39:02;101257.16;;;2.50;93.81
74895;BME280;63447;49.446;8.666;2023-11-22T04:41:29;101259.19;;;2.37;93.12
74895;BME280;63447;49.446;8.666;2023-11-22T04:43:54;101258.78;;;2.24;93.41
74895;BME280;63447;49.446;8.666;2023-11-22T04:46:20;101221.28;;;2.04;92.77
74895;BME280;63447;49.446;8.666;2023-11-22T04:48:49;101262.06;;;2.26;91.14
74895;BME280;63447;49.446;8.666;2023-11-22T04:51:16;101249.72;;;2.18;90.76
74895;BME280;63447;49.446;8.666;2023-11-22T04:53:44;101236.44;;;2.22;92.04
74895;BME280;63447;49.446;8.666;2023-11-22T04:56:12;101235.03;;;2.19;92.07
74895;BME280;63447;49.446;8.666;2023-11-22T04:58:39;101257.78;;;2.30;91.04
74895;BME280;63447;49.446;8.666;2023-11-22T05:01:07;101266.75;;;2.30;91.18
74895;BME280;63447;49.446;8.666;2023-11-22T05:03:37;101257.44;;;2.26;89.67
74895;BME280;63447;49.446;8.666;2023-11-22T05:06:03;101258.53;;;2.25;89.07
74895;BME280;63447;49.446;8.666;2023-11-22T05:08:29;101259.41;;;2.09;86.05
74895;BME280;63447;49.446;8.666;2023-11-22T05:10:55;101269.22;;;2.10;84.11
74895;BME280;63447;49.446;8.666;2023-11-22T05:13:20;101259.88;;;2.01;81.86
74895;BME280;63447;49.446;8.666;2023-11-22T05:15:48;101262.91;;;2.04;83.67
74895;BME280;63447;49.446;8.666;2023-11-22T05:18:18;101260.63;;;1.96;80.83
74895;BME280;63447;49.446;8.666;2023-11-22T05:20:46;101267.16;;;1.95;80.42
74895;BME280;63447;49.446;8.666;2023-11-22T05:23:13;101258.91;;;1.90;81.10
74895;BME280;63447;49.446;8.666;2023-11-22T05:25:42;101265.81;;;1.98;81.52
74895;BME280;63447;49.446;8.666;2023-11-22T05:28:12;101280.66;;;2.07;83.60
74895;BME280;63447;49.446;8.666;2023-11-22T05:30:37;101254.53;;;1.89;82.58
74895;BME280;63447;49.446;8.666;2023-11-22T05:33:06;101265.25;;;1.96;83.38
74895;BME280;63447;49.446;8.666;2023-11-22T05:35:32;101281.81;;;2.16;83.90
74895;BME280;63447;49.446;8.666;2023-11-22T05:38:06;101299.56;;;2.19;81.26
74895;BME280;63447;49.446;8.666;2023-11-22T05:40:34;101272.28;;;1.92;83.75
74895;BME280;63447;49.446;8.666;2023-11-22T05:43:01;101284.88;;;1.98;83.89
74895;BME280;63447;49.446;8.666;2023-11-22T05:45:27;101302.97;;;2.09;85.14
74895;BME280;63447;49.446;8.666;2023-11-22T05:47:54;101299.94;;;2.06;82.90
74895;BME280;63447;49.446;8.666;2023-11-22T05:50:20;101311.59;;;2.01;83.20
74895;BME280;63447;49.446;8.666;2023-11-22T05:52:50;101310.84;;;2.06;81.87
74895;BME280;63447;49.446;8.666;2023-11-22T05:55:15;101315.13;;;2.01;81.18
74895;BME280;63447;49.446;8.666;2023-11-22T05:57:43;101335.50;;;1.99;79.18
74895;BME280;63447;49.446;8.666;2023-11-22T06:00:09;101318.53;;;1.92;79.79
74895;BME280;63447;49.446;8.666;2023-11-22T06:02:34;101337.09;;;1.95;80.50
74895;BME280;63447;49.446;8.666;2023-11-22T06:05:01;101288.66;;;1.58;82.19
74895;BME280;63447;49.446;8.666;2023-11-22T06:07:29;101332.75;;;1.77;81.61
74895;BME280;63447;49.446;8.666;2023-11-22T06:09:54;101324.94;;;1.81;81.49
74895;BME280;63447;49.446;8.666;2023-11-22T06:12:22;101329.56;;;1.63;82.52
74895;BME280;63447;49.446;8.666;2023-11-22T06:14:50;101324.28;;;1.57;83.77
74895;BME280;63447;49.446;8.666;2023-11-22T06:17:15;101330.94;;;1.66;82.96
74895;BME280;63447;49.446;8.666;2023-11-22T06:19:43;101329.28;;;1.82;85.49
74895;BME280;63447;49.446;8.666;2023-11-22T06:22:14;101335.84;;;1.86;84.99
74895;BME280;63447;49.446;8.666;2023-11-22T06:24:39;101333.66;;;1.66;81.97
74895;BME280;63447;49.446;8.666;2023-11-22T06:27:07;101346.75;;;1.86;83.68
74895;BME280;63447;49.446;8.666;2023-11-22T06:29:32;101357.06;;;1.84;85.98
74895;BME280;63447;49.446;8.666;2023-11-22T06:32:00;101362.56;;;2.27;92.22
74895;BME280;63447;49.446;8.666;2023-11-22T06:34:27;101353.75;;;1.98;82.00
74895;BME280;63447;49.446;8.666;2023-11-22T06:36:53;101366.66;;;2.08;76.24
74895;BME280;63447;49.446;8.666;2023-11-22T06:39:18;101371.31;;;1.91;76.92
74895;BME280;63447;49.446;8.666;2023-11-22T06:41:45;101373.25;;;1.74;76.75
74895;BME280;63447;49.446;8.666;2023-11-22T06:44:11;101376.47;;;1.70;77.50
74895;BME280;63447;49.446;8.666;2023-11-22T06:46:36;101389.41;;;1.63;76.13
74895;BME280;63447;49.446;8.666;2023-11-22T06:49:02;101369.88;;;1.50;77.11
74895;BME280;63447;49.446;8.666;2023-11-22T06:51:32;101378.28;;;1.48;77.69
74895;BME280;63447;49.446;8.666;2023-11-22T06:53:57;101369.53;;;1.46;77.69
74895;BME280;63447;49.446;8.666;2023-11-22T06:56:23;101359.16;;;1.43;79.66
74895;BME280;63447;49.446;8.666;2023-11-22T06:58:48;101408.03;;;1.72;79.80
74895;BME280;63447;49.446;8.666;2023-11-22T07:01:16;101396.09;;;1.56;80.93
74895;BME280;63447;49.446;8.666;2023-11-22T07:03:41;101398.97;;;1.49;81.56
74895;BME280;63447;49.446;8.666;2023-11-22T07:06:09;101394.84;;;1.47;81.79
74895;BME280;63447;49.446;8.666;2023-11-22T07:08:37;101417.41;;;1.64;82.01
74895;BME280;63447;49.446;8.666;2023-11-22T07:11:03;101418.25;;;1.64;80.61
74895;BME280;63447;49.446;8.666;2023-11-22T07:13:37;101406.22;;;1.60;80.31
74895;BME280;63447;49.446;8.666;2023-11-22T07:16:06;101426.00;;;1.56;78.15
74895;BME280;63447;49.446;8.666;2023-11-22T07:18:32;101416.09;;;1.50;80.25
74895;BME280;63447;49.446;8.666;2023-11-22T07:21:02;101413.97;;;1.52;77.34
74895;BME280;63447;49.446;8.666;2023-11-22T07:23:30;101431.44;;;1.56;77.29
74895;BME280;63447;49.446;8.666;2023-11-22T07:25:55;101416.09;;;1.50;78.17
74895;BME280;63447;49.446;8.666;2023-11-22T07:28:21;101432.25;;;1.40;77.91
74895;BME280;63447;49.446;8.666;2023-11-22T07:30:46;101429.38;;;1.46;76.55
74895;BME280;63447;49.446;8.666;2023-11-22T07:33:16;101433.34;;;1.55;75.63
74895;BME280;63447;49.446;8.666;2023-11-22T07:35:43;101406.53;;;1.47;76.88
74895;BME280;63447;49.446;8.666;2023-11-22T07:38:11;101399.31;;;1.53;77.64
74895;BME280;63447;49.446;8.666;2023-11-22T07:40:37;101424.94;;;1.74;77.96
74895;BME280;63447;49.446;8.666;2023-11-22T07:43:05;101405.03;;;1.56;76.30
74895;BME280;63447;49.446;8.666;2023-11-22T07:45:31;101431.25;;;1.62;77.29
74895;BME280;63447;49.446;8.666;2023-11-22T07:48:01;101400.63;;;1.50;76.93
74895;BME280;63447;49.446;8.666;2023-11-22T07:50:28;101417.03;;;1.72;77.11
74895;BME280;63447;49.446;8.666;2023-11-22T07:52:54;101420.06;;;1.76;77.32
74895;BME280;63447;49.446;8.666;2023-11-22T07:55:20;101405.66;;;1.75;78.59
74895;BME280;63447;49.446;8.666;2023-11-22T07:57:48;101415.09;;;1.89;76.04
74895;BME280;63447;49.446;8.666;2023-11-22T08:00:19;101422.28;;;1.95;75.82
74895;BME280;63447;49.446;8.666;2023-11-22T08:02:50;101388.13;;;1.88;76.36
74895;BME280;63447;49.446;8.666;2023-11-22T08:05:19;101420.28;;;3.17;75.75
74895;BME280;63447;49.446;8.666;2023-11-22T08:07:51;101409.66;;;4.21;71.45
74895;BME280;63447;49.446;8.666;2023-11-22T08:10:19;101432.75;;;5.23;66.61
74895;BME280;63447;49.446;8.666;2023-11-22T08:12:46;101439.88;;;5.14;66.09
74895;BME280;63447;49.446;8.666;2023-11-22T08:15:12;101444.88;;;4.70;65.64
74895;BME280;63447;49.446;8.666;2023-11-22T08:17:43;101414.00;;;4.64;65.73
74895;BME280;63447;49.446;8.666;2023-11-22T08:20:09;101431.78;;;4.67;65.34
74895;BME280;63447;49.446;8.666;2023-11-22T08:22:39;101443.06;;;4.96;66.38
74895;BME280;63447;49.446;8.666;2023-11-22T08:25:08;101439.69;;;4.68;66.92
74895;BME280;63447;49.446;8.666;2023-11-22T08:27:40;101431.69;;;4.52;68.13
74895;BME280;63447;49.446;8.666;2023-11-22T08:30:08;101427.56;;;5.17;65.92
74895;BME280;63447;49.446;8.666;2023-11-22T08:32:43;101438.56;;;5.57;64.38
74895;BME280;63447;49.446;8.666;2023-11-22T08:35:14;101450.91;;;6.10;63.74
74895;BME280;63447;49.446;8.666;2023-11-22T08:37:41;101448.94;;;6.36;62.69
74895;BME280;63447;49.446;8.666;2023-11-22T08:40:10;101457.13;;;6.57;61.07
74895;BME280;63447;49.446;8.666;2023-11-22T08:42:50;101447.78;;;6.68;60.21
74895;BME280;63447;49.446;8.666;2023-11-22T08:45:18;101446.59;;;6.84;59.82
74895;BME280;63447;49.446;8.666;2023-11-22T08:47:43;101467.72;;;6.89;58.70
74895;BME280;63447;49.446;8.666;2023-11-22T08:50:09;101467.16;;;6.92;59.57
74895;BME280;63447;49.446;8.666;2023-11-22T08:52:39;101469.78;;;6.47;58.28
74895;BME280;63447;49.446;8.666;2023-11-22T08:55:08;101469.28;;;6.15;61.14
74895;BME280;63447;49.446;8.666;2023-11-22T08:57:37;101451.16;;;6.24;61.17
74895;BME280;63447;49.446;8.666;2023-11-22T09:00:04;101444.03;;;6.28;61.11
74895;BME280;63447;49.446;8.666;2023-11-22T09:02:35;101451.69;;;6.46;57.54
74895;BME280;63447;49.446;8.666;2023-11-22T09:05:02;101444.88;;;5.98;60.65
74895;BME280;63447;49.446;8.666;2023-11-22T09:07:31;101463.25;;;6.13;59.64
74895;BME280;63447;49.446;8.666;2023-11-22T09:09:58;101443.88;;;6.79;56.48
74895;BME280;63447;49.446;8.666;2023-11-22T09:12:34;101439.13;;;6.10;59.12
74895;BME280;63447;49.446;8.666;2023-11-22T09:15:02;101453.72;;;6.90;59.25
74895;BME280;63447;49.446;8.666;2023-11-22T09:17:31;101461.16;;;7.78;56.37
74895;BME280;63447;49.446;8.666;2023-11-22T09:19:58;101468.69;;;7.96;55.75
74895;BME280;63447;49.446;8.666;2023-11-22T09:22:24;101479.38;;;9.08;52.88
74895;BME280;63447;49.446;8.666;2023-11-22T09:24:51;101472.00;;;9.79;50.18
74895;BME280;63447;49.446;8.666;2023-11-22T09:27:16;101494.44;;;9.72;48.32
74895;BME280;63447;49.446;8.666;2023-11-22T09:29:45;101493.78;;;10.45;47.62
74895;BME280;63447;49.446;8.666;2023-11-22T09:32:10;101484.66;;;10.91;46.60
74895;BME280;63447;49.446;8.666;2023-11-22T09:34:40;101472.53;;;10.13;48.11
74895;BME280;63447;49.446;8.666;2023-11-22T09:37:09;101472.06;;;10.71;45.45
74895;BME280;63447;49.446;8.666;2023-11-22T09:39:35;101462.84;;;11.03;45.68
74895;BME280;63447;49.446;8.666;2023-11-22T09:42:04;101481.84;;;10.50;43.93
74895;BME280;63447;49.446;8.666;2023-11-22T09:44:30;101484.59;;;9.29;46.43
74895;BME280;63447;49.446;8.666;2023-11-22T09:46:56;101479.19;;;10.12;47.31
74895;BME280;63447;49.446;8.666;2023-11-22T09:49:24;101499.41;;;9.89;47.14
74895;BME280;63447;49.446;8.666;2023-11-22T09:51:57;101495.53;;;7.70;50.43
74895;BME280;63447;49.446;8.666;2023-11-22T09:54:28;101490.19;;;7.50;51.39
74895;BME280;63447;49.446;8.666;2023-11-22T09:56:57;101490.47;;;7.88;51.55
74895;BME280;63447;49.446;8.666;2023-11-22T09:59:27;101504.72;;;7.95;51.71
74895;BME280;63447;49.446;8.666;2023-11-22T10:01:53;101494.97;;;7.73;51.87
74895;BME280;63447;49.446;8.666;2023-11-22T10:04:19;101513.03;;;6.71;54.81
74895;BME280;63447;49.446;8.666;2023-11-22T10:06:48;101487.06;;;6.43;57.13
74895;BME280;63447;49.446;8.666;2023-11-22T10:09:18;101512.00;;;6.41;56.56
74895;BME280;63447;49.446;8.666;2023-11-22T10:11:44;101509.88;;;7.08;56.07
74895;BME280;63447;49.446;8.666;2023-11-22T10:14:10;101497.50;;;7.15;53.02
74895;BME280;63447;49.446;8.666;2023-11-22T10:16:35;101485.63;;;6.71;54.31
74895;BME280;63447;49.446;8.666;2023-11-22T10:19:05;101500.66;;;6.78;54.52
74895;BME280;63447;49.446;8.666;2023-11-22T10:21:31;101508.72;;;6.44;55.40
74895;BME280;63447;49.446;8.666;2023-11-22T10:24:00;101500.69;;;6.68;55.58
74895;BME280;63447;49.446;8.666;2023-11-22T10:26:29;101502.09;;;5.69;56.49
74895;BME280;63447;49.446;8.666;2023-11-22T10:28:57;101526.25;;;6.03;57.38
74895;BME280;63447;49.446;8.666;2023-11-22T10:31:27;101504.03;;;5.79;57.20
74895;BME280;63447;49.446;8.666;2023-11-22T10:33:53;101521.81;;;5.61;57.54
74895;BME280;63447;49.446;8.666;2023-11-22T10:36:23;101523.47;;;5.88;57.15
74895;BME280;63447;49.446;8.666;2023-11-22T10:38:51;101541.31;;;6.36;56.64
74895;BME280;63447;49.446;8.666;2023-11-22T10:41:20;101549.28;;;6.47;57.24
74895;BME280;63447;49.446;8.666;2023-11-22T10:43:50;101519.94;;;6.38;54.68
74895;BME280;63447;49.446;8.666;2023-11-22T10:46:17;101510.06;;;6.47;54.66
74895;BME280;63447;49.446;8.666;2023-11-22T10:48:46;101512.50;;;6.74;55.00
74895;BME280;63447;49.446;8.666;2023-11-22T10:51:13;101539.16;;;6.23;56.26
74895;BME280;63447;49.446;8.666;2023-11-22T10:53:43;101545.47;;;6.23;55.87
74895;BME280;63447;49.446;8.666;2023-11-22T10:56:14;101541.06;;;6.12;56.50
74895;BME280;63447;49.446;8.666;2023-11-22T11:01:15;101524.09;;;6.20;57.33
74895;BME280;63447;49.446;8.666;2023-11-22T11:03:55;101533.09;;;6.31;58.26
74895;BME280;63447;49.446;8.666;2023-11-22T11:06:26;101551.75;;;6.13;56.36
74895;BME280;63447;49.446;8.666;2023-11-22T11:09:00;101559.06;;;5.67;57.52
74895;BME280;63447;49.446;8.666;2023-11-22T11:11:29;101561.78;;;5.62;59.88
74895;BME280;63447;49.446;8.666;2023-11-22T11:13:56;101566.19;;;5.84;59.45
74895;BME280;63447;49.446;8.666;2023-11-22T11:16:23;101550.63;;;5.89;61.34
74895;BME280;63447;49.446;8.666;2023-11-22T11:18:49;101567.84;;;5.85;61.18
74895;BME280;63447;49.446;8.666;2023-11-22T11:21:15;101557.22;;;5.93;59.28
74895;BME280;63447;49.446;8.666;2023-11-22T11:23:41;101562.72;;;6.13;59.90
74895;BME280;63447;49.446;8.666;2023-11-22T11:26:14;101564.56;;;5.88;61.03
74895;BME280;63447;49.446;8.666;2023-11-22T11:28:48;101547.81;;;5.74;61.23
74895;BME280;63447;49.446;8.666;2023-11-22T11:31:16;101560.63;;;5.43;62.27
74895;BME280;63447;49.446;8.666;2023-11-22T11:38:46;101558.66;;;5.33;60.75
74895;BME280;63447;49.446;8.666;2023-11-22T11:41:16;101558.72;;;5.43;61.31
74895;BME280;63447;49.446;8.666;2023-11-22T11:43:46;101568.25;;;5.36;61.52
74895;BME280;63447;49.446;8.666;2023-11-22T11:46:12;101584.19;;;5.54;62.14
74895;BME280;63447;49.446;8.666;2023-11-22T11:48:44;101582.75;;;5.36;62.44
74895;BME280;63447;49.446;8.666;2023-11-22T11:51:13;101584.69;;;5.46;60.81
74895;BME280;63447;49.446;8.666;2023-11-22T11:53:44;101562.50;;;5.32;63.01
74895;BME280;63447;49.446;8.666;2023-11-22T11:56:15;101584.47;;;5.53;61.59
74895;BME280;63447;49.446;8.666;2023-11-22T11:58:49;101592.94;;;5.51;61.06
74895;BME280;63447;49.446;8.666;2023-11-22T12:01:18;101590.72;;;5.48;62.14
74895;BME280;63447;49.446;8.666;2023-11-22T12:03:49;101589.38;;;5.45;60.84
74895;BME280;63447;49.446;8.666;2023-11-22T12:06:18;101595.13;;;5.44;63.60
74895;BME280;63447;49.446;8.666;2023-11-22T12:08:46;101612.91;;;5.46;62.17
74895;BME280;63447;49.446;8.666;2023-11-22T12:11:14;101602.69;;;5.27;61.80
74895;BME280;63447;49.446;8.666;2023-11-22T12:13:41;101603.09;;;5.56;62.06
74895;BME280;63447;49.446;8.666;2023-11-22T12:16:16;101602.03;;;5.67;60.58
74895;BME280;63447;49.446;8.666;2023-11-22T12:18:48;101600.13;;;5.72;60.84
74895;BME280;63447;49.446;8.666;2023-11-22T12:21:15;101575.44;;;5.57;60.28
74895;BME280;63447;49.446;8.666;2023-11-22T12:23:41;101580.84;;;5.37;60.78
74895;BME280;63447;49.446;8.666;2023-11-22T12:26:14;101562.81;;;5.46;59.81
74895;BME280;63447;49.446;8.666;2023-11-22T12:28:50;101564.81;;;5.66;60.02
74895;BME280;63447;49.446;8.666;2023-11-22T12:31:18;101560.41;;;5.75;59.99
74895;BME280;63447;49.446;8.666;2023-11-22T12:33:44;101582.31;;;5.65;59.25
74895;BME280;63447;49.446;8.666;2023-11-22T12:36:13;101549.59;;;5.23;60.96
74895;BME280;63447;49.446;8.666;2023-11-22T12:38:41;101561.22;;;5.60;61.06
74895;BME280;63447;49.446;8.666;2023-11-22T12:41:07;101545.88;;;5.54;60.50
74895;BME280;63447;49.446;8.666;2023-11-22T12:43:33;101539.84;;;5.52;61.32
74895;BME280;63447;49.446;8.666;2023-11-22T12:46:05;101555.47;;;5.57;60.00
74895;BME280;63447;49.446;8.666;2023-11-22T12:48:41;101538.50;;;5.75;59.05
74895;BME280;63447;49.446;8.666;2023-11-22T12:51:17;101560.78;;;5.89;59.63
74895;BME280;63447;49.446;8.666;2023-11-22T12:53:47;101558.72;;;5.54;59.30
74895;BME280;63447;49.446;8.666;2023-11-22T12:56:15;101548.03;;;5.52;61.01
74895;BME280;63447;49.446;8.666;2023-11-22T12:58:40;101557.41;;;5.66;60.34
74895;BME280;63447;49.446;8.666;2023-11-22T13:01:08;101572.16;;;5.55;59.56
74895;BME280;63447;49.446;8.666;2023-11-22T13:03:35;101568.38;;;5.76;61.03
74895;BME280;63447;49.446;8.666;2023-11-22T13:06:01;101561.78;;;5.72;60.37
74895;BME280;63447;49.446;8.666;2023-11-22T13:08:26;101560.63;;;5.43;61.20
74895;BME280;63447;49.446;8.666;2023-11-22T13:10:57;101567.78;;;5.59;60.10